createdAt,value
2019-01-28T05:41:25.979Z,985.48
2019-01-28T05:42:06.530Z,985.48
2019-01-28T05:42:47.092Z,985.46
2019-01-28T05:43:27.643Z,985.48
2019-01-28T05:44:08.199Z,985.44
2019-01-28T05:44:50.118Z,985.48
2019-01-28T05:45:29.314Z,985.48
2019-01-28T05:46:09.864Z,985.48
2019-01-28T05:46:50.420Z,985.49
2019-01-28T05:47:31.067Z,985.52
2019-01-28T05:48:11.619Z,985.49
2019-01-28T05:48:52.169Z,985.54
2019-01-28T05:49:32.727Z,985.52
2019-01-28T05:50:13.293Z,985.54
2019-01-28T05:50:53.846Z,985.51
2019-01-28T05:51:34.407Z,985.53
2019-01-28T05:52:14.961Z,985.53
2019-01-28T05:52:55.532Z,985.55
2019-01-28T05:53:36.092Z,985.55
2019-01-28T05:54:16.651Z,985.51
2019-01-28T05:54:57.209Z,985.5
2019-01-28T05:55:37.773Z,985.54
2019-01-28T05:56:18.372Z,985.53
2019-01-28T05:56:58.889Z,985.55
2019-01-28T05:57:39.473Z,985.53
2019-01-28T05:58:20.044Z,985.52
2019-01-28T05:59:00.614Z,985.54
2019-01-28T05:59:41.158Z,985.55
2019-01-28T06:00:21.718Z,985.58
2019-01-28T06:01:02.277Z,985.64
2019-01-28T06:01:42.833Z,985.64
2019-01-28T06:02:25.262Z,985.63
2019-01-28T06:03:03.949Z,985.59
2019-01-28T06:03:44.499Z,985.61
2019-01-28T06:04:25.076Z,985.64
2019-01-28T06:05:05.636Z,985.67
2019-01-28T06:05:46.193Z,985.61
2019-01-28T06:06:26.743Z,985.62
2019-01-28T06:07:07.281Z,985.64
2019-01-28T06:07:47.840Z,985.63
2019-01-28T06:08:28.401Z,985.61
2019-01-28T06:09:08.961Z,985.59
2019-01-28T06:09:49.513Z,985.63
2019-01-28T06:10:30.094Z,985.61
2019-01-28T06:11:10.649Z,985.61
2019-01-28T06:11:51.215Z,985.62
2019-01-28T06:12:31.819Z,985.63
2019-01-28T06:13:12.398Z,985.59
2019-01-28T06:13:53.041Z,985.59
2019-01-28T06:14:34.661Z,985.52
2019-01-28T06:15:14.093Z,985.54
2019-01-28T06:15:54.650Z,985.54
2019-01-28T06:16:35.201Z,985.55
2019-01-28T06:17:15.758Z,985.57
2019-01-28T06:17:56.321Z,985.57
2019-01-28T06:18:36.872Z,985.57
2019-01-28T06:19:17.422Z,985.53
2019-01-28T06:19:57.981Z,985.57
2019-01-28T06:20:38.539Z,985.54
2019-01-28T06:21:19.133Z,985.57
2019-01-28T06:21:59.678Z,985.56
2019-01-28T06:22:40.222Z,985.55
2019-01-28T06:23:20.787Z,985.5
2019-01-28T06:24:01.355Z,985.51
2019-01-28T06:24:41.909Z,985.52
2019-01-28T06:25:22.474Z,985.49
2019-01-28T06:26:03.014Z,985.52
2019-01-28T06:26:43.590Z,985.54
2019-01-28T06:27:24.165Z,985.61
2019-01-28T06:28:04.761Z,985.65
2019-01-28T06:28:46.542Z,985.63
2019-01-28T06:29:26.186Z,985.66
2019-01-28T06:30:06.814Z,985.7
2019-01-28T06:30:47.427Z,985.69
2019-01-28T06:31:27.994Z,985.62
2019-01-28T06:32:08.759Z,985.65
2019-01-28T06:32:49.314Z,985.66
2019-01-28T06:33:29.879Z,985.65
2019-01-28T06:34:10.444Z,985.69
2019-01-28T06:34:51.016Z,985.71
2019-01-28T06:35:31.572Z,985.74
2019-01-28T06:36:12.132Z,985.71
2019-01-28T06:36:52.680Z,985.72
2019-01-28T06:37:33.222Z,985.75
2019-01-28T06:38:14.051Z,985.72
2019-01-28T06:38:54.607Z,985.74
2019-01-28T06:39:36.750Z,985.78
2019-01-28T06:40:15.722Z,985.75
2019-01-28T06:40:56.292Z,985.73
2019-01-28T06:41:36.905Z,985.76
2019-01-28T06:42:17.484Z,985.76
2019-01-28T06:42:58.072Z,985.71
2019-01-28T06:43:38.656Z,985.72
2019-01-28T06:44:19.232Z,985.72
2019-01-28T06:44:59.803Z,985.7
2019-01-28T06:45:40.357Z,985.7
2019-01-28T06:46:20.924Z,985.68
2019-01-28T06:47:01.475Z,985.69
2019-01-28T06:47:46.599Z,985.68
2019-01-28T06:48:22.579Z,985.64
2019-01-28T06:49:03.146Z,985.65
2019-01-28T06:49:43.712Z,985.67
2019-01-28T06:50:24.274Z,985.65
2019-01-28T06:51:04.854Z,985.64
2019-01-28T06:51:45.416Z,985.69
2019-01-28T06:52:25.955Z,985.66
2019-01-28T06:53:06.510Z,985.69
2019-01-28T06:53:47.060Z,985.71
2019-01-28T06:54:27.637Z,985.73
2019-01-28T06:55:08.196Z,985.71
2019-01-28T06:55:48.737Z,985.77
2019-01-28T06:56:29.308Z,985.71
2019-01-28T06:57:09.891Z,985.73
2019-01-28T06:57:50.463Z,985.71
2019-01-28T06:58:31.051Z,985.73
2019-01-28T06:59:11.621Z,985.77
2019-01-28T06:59:52.171Z,985.77
2019-01-28T07:00:32.718Z,985.82
2019-01-28T07:01:13.278Z,985.81
2019-01-28T07:01:53.868Z,985.82
2019-01-28T07:02:34.461Z,985.82
2019-01-28T07:03:15.023Z,985.82
2019-01-28T07:03:55.605Z,985.79
2019-01-28T07:04:36.165Z,985.82
2019-01-28T07:05:16.729Z,985.83
2019-01-28T07:05:57.291Z,985.86
2019-01-28T07:06:37.921Z,985.81
2019-01-28T07:07:18.481Z,985.83
2019-01-28T07:07:59.048Z,985.89
2019-01-28T07:08:39.591Z,985.87
2019-01-28T07:09:20.134Z,985.89
2019-01-28T07:10:00.704Z,985.87
2019-01-28T07:10:41.279Z,985.85
2019-01-28T07:11:21.837Z,985.9
2019-01-28T07:12:02.386Z,985.91
2019-01-28T07:12:42.958Z,985.94
2019-01-28T07:13:23.553Z,985.92
2019-01-28T07:14:04.109Z,985.92
2019-01-28T07:14:44.655Z,985.92
2019-01-28T07:15:25.225Z,985.87
2019-01-28T07:16:05.818Z,985.9
2019-01-28T07:16:46.386Z,985.92
2019-01-28T07:17:26.950Z,985.88
2019-01-28T07:18:07.514Z,985.85
2019-01-28T07:18:48.075Z,985.91
2019-01-28T07:19:29.339Z,985.9
2019-01-28T07:20:09.202Z,985.89
2019-01-28T07:20:49.806Z,985.87
2019-01-28T07:21:30.376Z,985.89
2019-01-28T07:22:10.941Z,985.83
2019-01-28T07:22:51.527Z,985.86
2019-01-28T07:23:32.093Z,985.89
2019-01-28T07:24:12.655Z,985.87
2019-01-28T07:24:53.222Z,985.88
2019-01-28T07:25:33.793Z,985.92
2019-01-28T07:26:14.351Z,985.94
2019-01-28T07:26:54.941Z,985.94
2019-01-28T07:27:35.514Z,985.91
2019-01-28T07:28:16.074Z,985.89
2019-01-28T07:28:56.618Z,985.91
2019-01-28T07:29:37.235Z,985.93
2019-01-28T07:30:17.797Z,985.9
2019-01-28T07:30:58.353Z,985.93
2019-01-28T07:31:38.921Z,985.93
2019-01-28T07:32:19.483Z,985.95
2019-01-28T07:33:00.063Z,985.96
2019-01-28T07:33:40.601Z,985.95
2019-01-28T07:34:21.167Z,985.94
2019-01-28T07:35:01.731Z,985.97
2019-01-28T07:35:42.281Z,985.94
2019-01-28T07:36:22.833Z,985.96
2019-01-28T07:37:03.406Z,985.93
2019-01-28T07:37:43.950Z,985.99
2019-01-28T07:38:24.554Z,985.96
2019-01-28T07:39:05.130Z,985.95
2019-01-28T07:39:45.691Z,985.96
2019-01-28T07:40:26.284Z,985.91
2019-01-28T07:41:06.848Z,985.93
2019-01-28T07:41:47.404Z,985.91
2019-01-28T07:42:27.954Z,985.92
2019-01-28T07:43:08.548Z,985.92
2019-01-28T07:43:49.114Z,985.95
2019-01-28T07:44:29.665Z,985.92
2019-01-28T07:45:10.266Z,985.96
2019-01-28T07:45:50.821Z,985.97
2019-01-28T07:46:31.431Z,985.97
2019-01-28T07:47:12.003Z,986.03
2019-01-28T07:47:52.567Z,985.99
2019-01-28T07:48:33.123Z,986.02
2019-01-28T07:49:13.705Z,986
2019-01-28T07:49:54.255Z,986
2019-01-28T07:50:34.813Z,986
2019-01-28T07:51:15.518Z,985.97
2019-01-28T07:51:56.070Z,986
2019-01-28T07:52:36.621Z,986.05
2019-01-28T07:53:17.178Z,986.03
2019-01-28T07:53:57.724Z,986.05
2019-01-28T07:54:38.294Z,986.04
2019-01-28T07:55:18.856Z,986.07
2019-01-28T07:55:59.422Z,986.04
2019-01-28T07:56:39.964Z,986.08
2019-01-28T07:57:20.539Z,986.06
2019-01-28T07:58:01.089Z,986.1
2019-01-28T07:58:41.644Z,986.08
2019-01-28T07:59:22.195Z,986.1
2019-01-28T08:00:02.759Z,986.09
2019-01-28T08:00:43.326Z,986.12
2019-01-28T08:01:23.869Z,986.1
2019-01-28T08:02:04.438Z,986.11
2019-01-28T08:02:44.992Z,986.11
2019-01-28T08:03:25.549Z,986.13
2019-01-28T08:04:06.104Z,986.1
2019-01-28T08:04:46.683Z,986.13
2019-01-28T08:05:27.240Z,986.15
2019-01-28T08:06:07.811Z,986.16
2019-01-28T08:06:48.377Z,986.06
2019-01-28T08:07:28.931Z,986.07
2019-01-28T08:08:09.484Z,986.11
2019-01-28T08:08:50.069Z,986.12
2019-01-28T08:09:30.657Z,986.18
2019-01-28T08:10:11.235Z,986.15
2019-01-28T08:10:51.788Z,986.18
2019-01-28T08:11:32.324Z,986.17
2019-01-28T08:12:12.911Z,986.14
2019-01-28T08:12:53.491Z,986.16
2019-01-28T08:13:34.106Z,986.17
2019-01-28T08:14:14.666Z,986.18
2019-01-28T08:14:55.225Z,986.18
2019-01-28T08:15:35.790Z,986.2
2019-01-28T08:16:16.342Z,986.26
2019-01-28T08:16:56.907Z,986.2
2019-01-28T08:17:37.458Z,986.24
2019-01-28T08:18:18.007Z,986.23
2019-01-28T08:18:58.578Z,986.25
2019-01-28T08:19:39.133Z,986.26
2019-01-28T08:20:19.693Z,986.21
2019-01-28T08:21:00.270Z,986.25
2019-01-28T08:21:40.822Z,986.24
2019-01-28T08:22:21.409Z,986.21
2019-01-28T08:23:01.998Z,986.16
2019-01-28T08:23:42.564Z,986.2
2019-01-28T08:24:23.117Z,986.2
2019-01-28T08:25:03.679Z,986.19
2019-01-28T08:25:44.262Z,986.18
2019-01-28T08:26:24.800Z,986.17
2019-01-28T08:27:05.378Z,986.22
2019-01-28T08:27:45.943Z,986.21
2019-01-28T08:28:26.527Z,986.25
2019-01-28T08:29:07.126Z,986.24
2019-01-28T08:29:47.686Z,986.22
2019-01-28T08:30:28.244Z,986.27
2019-01-28T08:31:08.804Z,986.22
2019-01-28T08:31:49.370Z,986.26
2019-01-28T08:32:29.934Z,986.23
2019-01-28T08:33:10.489Z,986.14
2019-01-28T08:33:51.081Z,986.22
2019-01-28T08:34:31.635Z,986.18
2019-01-28T08:35:12.189Z,986.2
2019-01-28T08:35:52.764Z,986.2
2019-01-28T08:36:33.340Z,986.16
2019-01-28T08:37:13.911Z,986.22
2019-01-28T08:37:54.486Z,986.18
2019-01-28T08:38:35.045Z,986.23
2019-01-28T08:39:15.595Z,986.19
2019-01-28T08:39:56.146Z,986.14
2019-01-28T08:40:36.705Z,986.21
2019-01-28T08:41:17.295Z,986.19
2019-01-28T08:41:57.864Z,986.22
2019-01-28T08:42:38.525Z,986.26
2019-01-28T08:43:19.084Z,986.18
2019-01-28T08:43:59.649Z,986.22
2019-01-28T08:44:40.220Z,986.31
2019-01-28T08:45:20.773Z,986.31
2019-01-28T08:46:01.324Z,986.26
2019-01-28T08:46:41.914Z,986.28
2019-01-28T08:47:22.475Z,986.31
2019-01-28T08:48:03.459Z,986.35
2019-01-28T08:48:44.025Z,986.34
2019-01-28T08:49:24.580Z,986.31
2019-01-28T08:50:05.158Z,986.3
2019-01-28T08:50:45.739Z,986.29
2019-01-28T08:51:26.286Z,986.27
2019-01-28T08:52:06.847Z,986.27
2019-01-28T08:52:47.429Z,986.3
2019-01-28T08:53:27.981Z,986.24
2019-01-28T08:54:08.550Z,986.3
2019-01-28T08:54:49.104Z,986.26
2019-01-28T08:55:29.654Z,986.29
2019-01-28T08:56:16.599Z,986.26
2019-01-28T08:56:50.813Z,986.28
2019-01-28T08:57:31.371Z,986.32
2019-01-28T08:58:12.025Z,986.33
2019-01-28T08:58:52.574Z,986.35
2019-01-28T08:59:33.151Z,986.35
2019-01-28T09:00:13.714Z,986.29
2019-01-28T09:00:54.286Z,986.32
2019-01-28T09:01:34.867Z,986.36
2019-01-28T09:02:15.427Z,986.41
2019-01-28T09:02:55.990Z,986.42
2019-01-28T09:03:36.553Z,986.47
2019-01-28T09:04:17.130Z,986.41
2019-01-28T09:04:57.702Z,986.41
2019-01-28T09:05:38.272Z,986.4
2019-01-28T09:06:18.836Z,986.42
2019-01-28T09:06:59.408Z,986.4
2019-01-28T09:07:39.958Z,986.39
2019-01-28T09:08:20.511Z,986.42
2019-01-28T09:09:01.071Z,986.38
2019-01-28T09:09:41.629Z,986.43
2019-01-28T09:10:22.181Z,986.46
2019-01-28T09:11:02.914Z,986.46
2019-01-28T09:11:43.484Z,986.42
2019-01-28T09:12:24.098Z,986.46
2019-01-28T09:13:04.671Z,986.48
2019-01-28T09:13:45.222Z,986.46
2019-01-28T09:14:25.788Z,986.49
2019-01-28T09:15:06.341Z,986.44
2019-01-28T09:15:46.911Z,986.45
2019-01-28T09:16:27.483Z,986.46
2019-01-28T09:17:08.043Z,986.46
2019-01-28T09:17:48.610Z,986.46
2019-01-28T09:18:29.177Z,986.45
2019-01-28T09:19:09.732Z,986.41
2019-01-28T09:19:50.303Z,986.45
2019-01-28T09:20:30.858Z,986.44
2019-01-28T09:21:11.405Z,986.45
2019-01-28T09:21:52.009Z,986.45
2019-01-28T09:22:32.537Z,986.45
2019-01-28T09:23:13.108Z,986.48
2019-01-28T09:23:53.678Z,986.48
2019-01-28T09:24:34.387Z,986.49
2019-01-28T09:25:14.929Z,986.52
2019-01-28T09:25:55.510Z,986.45
2019-01-28T09:26:36.079Z,986.49
2019-01-28T09:27:16.665Z,986.52
2019-01-28T09:27:57.405Z,986.49
2019-01-28T09:28:37.954Z,986.55
2019-01-28T09:29:18.503Z,986.53
2019-01-28T09:29:59.058Z,986.56
2019-01-28T09:30:39.643Z,986.55
2019-01-28T09:31:20.209Z,986.52
2019-01-28T09:32:00.795Z,986.53
2019-01-28T09:32:41.347Z,986.5
2019-01-28T09:33:21.917Z,986.53
2019-01-28T09:34:02.480Z,986.53
2019-01-28T09:34:43.081Z,986.55
2019-01-28T09:35:23.646Z,986.55
2019-01-28T09:36:04.216Z,986.53
2019-01-28T09:36:44.789Z,986.56
2019-01-28T09:37:25.362Z,986.5
2019-01-28T09:38:05.939Z,986.54
2019-01-28T09:38:46.498Z,986.56
2019-01-28T09:39:27.060Z,986.49
2019-01-28T09:40:07.648Z,986.47
2019-01-28T09:40:48.221Z,986.41
2019-01-28T09:41:28.794Z,986.37
2019-01-28T09:42:09.355Z,986.37
2019-01-28T09:42:49.946Z,986.37
2019-01-28T09:43:30.520Z,986.36
2019-01-28T09:44:11.090Z,986.38
2019-01-28T09:44:51.658Z,986.38
2019-01-28T09:45:32.239Z,986.44
2019-01-28T09:46:12.834Z,986.45
2019-01-28T09:46:53.393Z,986.5
2019-01-28T09:47:33.976Z,986.45
2019-01-28T09:48:14.541Z,986.41
2019-01-28T09:48:55.102Z,986.46
2019-01-28T09:49:35.680Z,986.41
2019-01-28T09:50:16.256Z,986.39
2019-01-28T09:50:56.842Z,986.43
2019-01-28T09:51:37.425Z,986.41
2019-01-28T09:52:18.114Z,986.45
2019-01-28T09:52:58.687Z,986.43
2019-01-28T09:53:39.276Z,986.43
2019-01-28T09:54:19.948Z,986.43
2019-01-28T09:55:00.507Z,986.42
2019-01-28T09:55:41.097Z,986.39
2019-01-28T09:56:21.663Z,986.41
2019-01-28T09:57:02.220Z,986.41
2019-01-28T09:57:42.890Z,986.45
2019-01-28T09:58:23.491Z,986.4
2019-01-28T09:59:04.074Z,986.45
2019-01-28T09:59:44.646Z,986.39
2019-01-28T10:00:26.366Z,986.44
2019-01-28T10:01:05.816Z,986.41
2019-01-28T10:01:46.368Z,986.46
2019-01-28T10:02:26.953Z,986.48
2019-01-28T10:03:07.556Z,986.46
2019-01-28T10:03:48.113Z,986.43
2019-01-28T10:04:28.670Z,986.48
2019-01-28T10:05:09.221Z,986.46
2019-01-28T10:05:49.788Z,986.53
2019-01-28T10:06:30.361Z,986.48
2019-01-28T10:07:10.915Z,986.52
2019-01-28T10:07:51.473Z,986.5
2019-01-28T10:08:32.036Z,986.5
2019-01-28T10:09:12.597Z,986.5
2019-01-28T10:09:53.174Z,986.55
2019-01-28T10:10:33.745Z,986.53
2019-01-28T10:11:14.287Z,986.55
2019-01-28T10:11:54.865Z,986.55
2019-01-28T10:12:35.428Z,986.51
2019-01-28T10:13:16.014Z,986.51
2019-01-28T10:13:56.581Z,986.51
2019-01-28T10:14:37.171Z,986.52
2019-01-28T10:15:17.755Z,986.53
2019-01-28T10:15:58.321Z,986.51
2019-01-28T10:16:38.884Z,986.49
2019-01-28T10:17:19.447Z,986.49
2019-01-28T10:17:59.998Z,986.45
2019-01-28T10:18:41.809Z,986.5
2019-01-28T10:19:21.355Z,986.48
2019-01-28T10:20:02.059Z,986.46
2019-01-28T10:20:44.523Z,986.47
2019-01-28T10:21:23.296Z,986.46
2019-01-28T10:22:03.869Z,986.4
2019-01-28T10:22:44.435Z,986.42
2019-01-28T10:23:26.086Z,986.45
2019-01-28T10:24:05.565Z,986.4
2019-01-28T10:24:46.156Z,986.41
2019-01-28T10:25:26.726Z,986.39
2019-01-28T10:26:07.285Z,986.39
2019-01-28T10:26:47.845Z,986.37
2019-01-28T10:27:28.452Z,986.38
2019-01-28T10:28:08.984Z,986.4
2019-01-28T10:28:49.719Z,986.39
2019-01-28T10:29:30.256Z,986.39
2019-01-28T10:30:10.823Z,986.41
2019-01-28T10:30:51.381Z,986.36
2019-01-28T10:31:31.952Z,986.38
2019-01-28T10:32:12.503Z,986.39
2019-01-28T10:32:53.104Z,986.41
2019-01-28T10:33:33.658Z,986.44
2019-01-28T10:34:14.231Z,986.45
2019-01-28T10:34:54.819Z,986.41
2019-01-28T10:35:35.432Z,986.41
2019-01-28T10:36:15.988Z,986.41
2019-01-28T10:36:56.550Z,986.39
2019-01-28T10:37:37.140Z,986.34
2019-01-28T10:38:17.718Z,986.39
2019-01-28T10:38:58.275Z,986.36
2019-01-28T10:39:38.836Z,986.4
2019-01-28T10:40:19.411Z,986.37
2019-01-28T10:40:59.958Z,986.36
2019-01-28T10:41:40.570Z,986.36
2019-01-28T10:42:21.136Z,986.35
2019-01-28T10:43:01.712Z,986.41
2019-01-28T10:43:42.286Z,986.34
2019-01-28T10:44:22.846Z,986.28
2019-01-28T10:45:03.455Z,986.26
2019-01-28T10:45:44.041Z,986.3
2019-01-28T10:46:24.597Z,986.32
2019-01-28T10:47:05.183Z,986.28
2019-01-28T10:47:45.758Z,986.3
2019-01-28T10:48:26.316Z,986.3
2019-01-28T10:49:06.911Z,986.29
2019-01-28T10:49:47.476Z,986.26
2019-01-28T10:50:28.045Z,986.27
2019-01-28T10:51:08.602Z,986.31
2019-01-28T10:51:49.204Z,986.23
2019-01-28T10:52:29.767Z,986.23
2019-01-28T10:53:10.342Z,986.25
2019-01-28T10:53:50.895Z,986.25
2019-01-28T10:54:31.454Z,986.24
2019-01-28T10:55:12.011Z,986.24
2019-01-28T10:55:52.580Z,986.26
2019-01-28T10:56:33.173Z,986.24
2019-01-28T10:57:13.728Z,986.22
2019-01-28T10:57:54.304Z,986.24
2019-01-28T10:58:34.880Z,986.32
2019-01-28T10:59:15.444Z,986.28
2019-01-28T10:59:56.004Z,986.3
2019-01-28T11:00:36.552Z,986.33
2019-01-28T11:01:17.095Z,986.34
2019-01-28T11:01:57.674Z,986.38
2019-01-28T11:02:38.265Z,986.32
2019-01-28T11:03:18.844Z,986.3
2019-01-28T11:03:59.427Z,986.3
2019-01-28T11:04:39.987Z,986.29
2019-01-28T11:05:20.534Z,986.29
2019-01-28T11:06:01.090Z,986.29
2019-01-28T11:06:41.648Z,986.32
2019-01-28T11:07:22.215Z,986.28
2019-01-28T11:08:02.779Z,986.3
2019-01-28T11:08:43.341Z,986.35
2019-01-28T11:09:24.028Z,986.32
2019-01-28T11:10:04.466Z,986.34
2019-01-28T11:10:45.143Z,986.36
2019-01-28T11:11:25.644Z,986.35
2019-01-28T11:12:06.317Z,986.35
2019-01-28T11:12:46.763Z,986.3
2019-01-28T11:13:27.425Z,986.32
2019-01-28T11:14:08.012Z,986.27
2019-01-28T11:14:48.491Z,986.27
2019-01-28T11:15:29.099Z,986.33
2019-01-28T11:16:09.726Z,986.28
2019-01-28T11:16:50.269Z,986.3
2019-01-28T11:17:30.719Z,986.3
2019-01-28T11:18:11.361Z,986.28
2019-01-28T11:18:57.513Z,986.3
2019-01-28T11:19:32.440Z,986.3
2019-01-28T11:20:13.047Z,986.27
2019-01-28T11:20:53.591Z,986.27
2019-01-28T11:21:34.260Z,986.24
2019-01-28T11:22:14.804Z,986.32
2019-01-28T11:22:55.423Z,986.36
2019-01-28T11:23:35.987Z,986.27
2019-01-28T11:24:16.455Z,986.28
2019-01-28T11:24:57.057Z,986.35
2019-01-28T11:25:37.604Z,986.32
2019-01-28T11:26:18.194Z,986.29
2019-01-28T11:26:58.866Z,986.3
2019-01-28T11:27:39.333Z,986.29
2019-01-28T11:28:19.958Z,986.32
2019-01-28T11:29:00.485Z,986.33
2019-01-28T11:29:40.964Z,986.26
2019-01-28T11:30:21.521Z,986.25
2019-01-28T11:31:02.085Z,986.27
2019-01-28T11:31:42.636Z,986.23
2019-01-28T11:32:23.284Z,986.28
2019-01-28T11:33:03.765Z,986.25
2019-01-28T11:33:44.397Z,986.26
2019-01-28T11:34:24.919Z,986.29
2019-01-28T11:35:05.435Z,986.2
2019-01-28T11:35:46.152Z,986.2
2019-01-28T11:36:26.653Z,986.24
2019-01-28T11:37:07.152Z,986.18
2019-01-28T11:37:47.698Z,986.2
2019-01-28T11:38:28.342Z,986.23
2019-01-28T11:39:08.841Z,986.23
2019-01-28T11:39:49.515Z,986.25
2019-01-28T11:40:29.984Z,986.24
2019-01-28T11:41:10.521Z,986.23
2019-01-28T11:41:51.205Z,986.21
2019-01-28T11:42:31.666Z,986.19
2019-01-28T11:43:12.227Z,986.23
2019-01-28T11:43:52.770Z,986.17
2019-01-28T11:44:33.348Z,986.23
2019-01-28T11:45:14.026Z,986.2
2019-01-28T11:45:54.472Z,986.19
2019-01-28T11:46:35.159Z,986.19
2019-01-28T11:47:15.724Z,986.18
2019-01-28T11:47:56.148Z,986.2
2019-01-28T11:48:36.747Z,986.24
2019-01-28T11:49:17.323Z,986.15
2019-01-28T11:49:57.942Z,986.15
2019-01-28T11:50:38.443Z,986.13
2019-01-28T11:51:19.027Z,986.15
2019-01-28T11:51:59.574Z,986.25
2019-01-28T11:52:40.137Z,986.17
2019-01-28T11:53:20.711Z,986.19
2019-01-28T11:54:01.290Z,986.23
2019-01-28T11:54:41.843Z,986.21
2019-01-28T11:55:22.388Z,986.2
2019-01-28T11:56:02.982Z,986.18
2019-01-28T11:56:43.532Z,986.18
2019-01-28T11:57:24.120Z,986.17
2019-01-28T11:58:04.706Z,986.18
2019-01-28T11:58:45.724Z,986.16
2019-01-28T11:59:25.882Z,986.21
2019-01-28T12:00:06.452Z,986.22
2019-01-28T12:00:47.020Z,986.26
2019-01-28T12:01:27.589Z,986.26
2019-01-28T12:02:08.166Z,986.21
2019-01-28T12:02:48.733Z,986.25
2019-01-28T12:03:29.308Z,986.27
2019-01-28T12:04:09.853Z,986.27
2019-01-28T12:04:50.404Z,986.26
2019-01-28T12:05:30.965Z,986.27
2019-01-28T12:06:11.512Z,986.27
2019-01-28T12:06:52.059Z,986.26
2019-01-28T12:07:32.621Z,986.32
2019-01-28T12:08:13.228Z,986.24
2019-01-28T12:08:53.807Z,986.27
2019-01-28T12:09:34.352Z,986.29
2019-01-28T12:10:14.923Z,986.32
2019-01-28T12:10:55.545Z,986.33
2019-01-28T12:11:36.122Z,986.29
2019-01-28T12:12:16.707Z,986.33
2019-01-28T12:12:57.262Z,986.33
2019-01-28T12:13:37.837Z,986.36
2019-01-28T12:14:18.412Z,986.33
2019-01-28T12:14:58.972Z,986.33
2019-01-28T12:15:39.569Z,986.35
2019-01-28T12:16:20.143Z,986.31
2019-01-28T12:17:00.704Z,986.38
2019-01-28T12:17:41.272Z,986.34
2019-01-28T12:18:21.963Z,986.39
2019-01-28T12:19:02.525Z,986.4
2019-01-28T12:19:43.102Z,986.39
2019-01-28T12:20:23.879Z,986.41
2019-01-28T12:21:04.224Z,986.38
2019-01-28T12:21:44.791Z,986.38
2019-01-28T12:22:25.377Z,986.32
2019-01-28T12:23:05.932Z,986.34
2019-01-28T12:23:46.560Z,986.34
2019-01-28T12:24:27.123Z,986.4
2019-01-28T12:25:07.688Z,986.4
2019-01-28T12:25:48.618Z,986.4
2019-01-28T12:26:28.811Z,986.41
2019-01-28T12:27:09.379Z,986.39
2019-01-28T12:27:49.948Z,986.38
2019-01-28T12:28:30.509Z,986.4
2019-01-28T12:29:11.692Z,986.37
2019-01-28T12:29:51.707Z,986.41
2019-01-28T12:30:32.261Z,986.38
2019-01-28T12:31:12.824Z,986.41
2019-01-28T12:31:53.373Z,986.38
2019-01-28T12:32:33.938Z,986.41
2019-01-28T12:33:14.485Z,986.36
2019-01-28T12:33:55.039Z,986.43
2019-01-28T12:34:39.549Z,986.4
2019-01-28T12:35:17.458Z,986.47
2019-01-28T12:35:56.721Z,986.44
2019-01-28T12:36:37.281Z,986.42
2019-01-28T12:37:17.934Z,986.42
2019-01-28T12:37:58.766Z,986.4
2019-01-28T12:38:39.479Z,986.37
2019-01-28T12:39:20.026Z,986.31
2019-01-28T12:40:00.590Z,986.37
2019-01-28T12:40:41.146Z,986.29
2019-01-28T12:41:21.717Z,986.35
2019-01-28T12:42:02.275Z,986.32
2019-01-28T12:42:42.856Z,986.35
2019-01-28T12:43:23.414Z,986.31
2019-01-28T12:44:03.978Z,986.34
2019-01-28T12:44:44.530Z,986.33
2019-01-28T12:45:25.097Z,986.28
2019-01-28T12:46:05.640Z,986.27
2019-01-28T12:46:46.214Z,986.31
2019-01-28T12:47:26.786Z,986.27
2019-01-28T12:48:07.587Z,986.27
2019-01-28T12:48:48.148Z,986.34
2019-01-28T12:49:28.712Z,986.3
2019-01-28T12:50:09.329Z,986.34
2019-01-28T12:50:49.882Z,986.28
2019-01-28T12:51:30.441Z,986.27
2019-01-28T12:52:11.005Z,986.28
2019-01-28T12:52:51.619Z,986.33
2019-01-28T12:53:32.139Z,986.32
2019-01-28T12:54:12.721Z,986.36
2019-01-28T12:54:53.306Z,986.3
2019-01-28T12:55:34.104Z,986.29
2019-01-28T12:56:14.447Z,986.34
2019-01-28T12:56:55.005Z,986.36
2019-01-28T12:57:35.572Z,986.38
2019-01-28T12:58:16.136Z,986.36
2019-01-28T12:58:56.699Z,986.36
2019-01-28T12:59:37.263Z,986.38
2019-01-28T13:00:17.818Z,986.33
2019-01-28T13:00:58.371Z,986.31
2019-01-28T13:01:38.958Z,986.37
2019-01-28T13:02:19.507Z,986.33
2019-01-28T13:03:00.077Z,986.29
2019-01-28T13:03:40.645Z,986.35
2019-01-28T13:04:21.202Z,986.37
2019-01-28T13:05:01.772Z,986.35
2019-01-28T13:05:42.365Z,986.35
2019-01-28T13:06:22.879Z,986.36
2019-01-28T13:07:03.435Z,986.35
2019-01-28T13:07:43.984Z,986.31
2019-01-28T13:08:24.570Z,986.36
2019-01-28T13:09:05.139Z,986.31
2019-01-28T13:09:45.706Z,986.4
2019-01-28T13:10:26.267Z,986.32
2019-01-28T13:11:06.821Z,986.32
2019-01-28T13:11:47.390Z,986.33
2019-01-28T13:12:27.955Z,986.37
2019-01-28T13:13:08.518Z,986.28
2019-01-28T13:13:49.118Z,986.25
2019-01-28T13:14:29.688Z,986.24
2019-01-28T13:15:10.243Z,986.22
2019-01-28T13:15:50.797Z,986.24
2019-01-28T13:16:31.344Z,986.23
2019-01-28T13:17:11.930Z,986.17
2019-01-28T13:17:52.500Z,986.18
2019-01-28T13:18:33.087Z,986.18
2019-01-28T13:19:13.659Z,986.18
2019-01-28T13:19:54.222Z,986.22
2019-01-28T13:20:34.774Z,986.2
2019-01-28T13:21:15.333Z,986.23
2019-01-28T13:21:55.933Z,986.24
2019-01-28T13:22:44.610Z,986.26
2019-01-28T13:23:17.061Z,986.23
2019-01-28T13:23:57.654Z,986.25
2019-01-28T13:24:38.208Z,986.27
2019-01-28T13:25:18.777Z,986.3
2019-01-28T13:25:59.351Z,986.29
2019-01-28T13:26:39.899Z,986.29
2019-01-28T13:27:20.459Z,986.3
2019-01-28T13:28:01.009Z,986.34
2019-01-28T13:28:41.570Z,986.33
2019-01-28T13:29:22.157Z,986.3
2019-01-28T13:30:02.709Z,986.34
2019-01-28T13:30:43.260Z,986.3
2019-01-28T13:31:23.818Z,986.31
2019-01-28T13:32:04.397Z,986.32
2019-01-28T13:32:44.962Z,986.3
2019-01-28T13:33:25.521Z,986.3
2019-01-28T13:34:06.087Z,986.31
2019-01-28T13:34:46.638Z,986.26
2019-01-28T13:35:27.191Z,986.28
2019-01-28T13:36:09.519Z,986.3
2019-01-28T13:36:48.297Z,986.3
2019-01-28T13:37:28.859Z,986.28
2019-01-28T13:38:09.418Z,986.26
2019-01-28T13:38:49.981Z,986.28
2019-01-28T13:39:30.543Z,986.33
2019-01-28T13:40:11.123Z,986.31
2019-01-28T13:40:51.671Z,986.31
2019-01-28T13:41:32.221Z,986.26
2019-01-28T13:42:12.814Z,986.33
2019-01-28T13:42:53.362Z,986.34
2019-01-28T13:43:33.908Z,986.35
2019-01-28T13:44:14.461Z,986.39
2019-01-28T13:44:55.061Z,986.3
2019-01-28T13:45:35.637Z,986.34
2019-01-28T13:46:16.179Z,986.34
2019-01-28T13:46:56.732Z,986.33
2019-01-28T13:47:37.324Z,986.35
2019-01-28T13:48:17.886Z,986.31
2019-01-28T13:48:58.446Z,986.34
2019-01-28T13:49:39.032Z,986.31
2019-01-28T13:50:19.589Z,986.35
2019-01-28T13:51:00.141Z,986.35
2019-01-28T13:51:40.710Z,986.29
2019-01-28T13:52:21.268Z,986.33
2019-01-28T13:53:01.827Z,986.38
2019-01-28T13:53:42.404Z,986.38
2019-01-28T13:54:22.965Z,986.37
2019-01-28T13:55:03.534Z,986.35
2019-01-28T13:55:44.093Z,986.34
2019-01-28T13:56:24.701Z,986.36
2019-01-28T13:57:05.219Z,986.38
2019-01-28T13:57:45.783Z,986.33
2019-01-28T13:58:26.357Z,986.33
2019-01-28T13:59:06.912Z,986.35
2019-01-28T13:59:47.469Z,986.34
2019-01-28T14:00:28.072Z,986.36
2019-01-28T14:01:08.634Z,986.3
2019-01-28T14:01:49.198Z,986.39
2019-01-28T14:02:29.781Z,986.33
2019-01-28T14:03:10.348Z,986.32
2019-01-28T14:03:50.918Z,986.34
2019-01-28T14:04:31.484Z,986.31
2019-01-28T14:05:12.529Z,986.35
2019-01-28T14:05:53.701Z,986.34
2019-01-28T14:06:34.775Z,986.33
2019-01-28T14:07:16.083Z,986.34
2019-01-28T14:07:57.311Z,986.33
2019-01-28T14:08:39.332Z,986.32
2019-01-28T14:09:20.623Z,986.36